Últimos artigos:
Falta de som no Morse Runner em Linux?
Touchpad tapping, em Debian Buster (10)
Acender um LED com a tensão da rede eléctrica
Programação do Yaesu FT-60 para os EasySats
AO-91 (RadFxSat Fox-1B) está no Ar!
CT7AFR DIY CW-Keyer
Últimas fotos:
Últimos METARs:
LPAZ 050430Z 04017KT 9999 BKN007 17/16 Q10...
LPFR 050430Z 30004KT CAVOK 17/13 Q1014=
LPHR 050445Z NIL=
LPLA 050400Z /////KT 9999 FEW008 BKN012 17...
LPMA 050430Z 26005KT 9999 FEW015 18/15 Q10...
LPPD 050430Z 03013KT 9999 FEW015 17/15 Q10...
LPPR 050430Z 00000KT CAVOK 12/10 Q1014=
LPPS 050430Z 16005KT 9999 FEW008 19/17 Q10...
LPPT 050430Z 31010KT 9999 FEW015 16/13 Q10...
Últimos QSOs:
2020/05/30-22:15 2m CT1BXT (RODRIGO)
2020/05/30-21:06 2m CT2HGJ (PEDRO)
2020/05/30-20:19 2m CT1REP/P (REP)
2020/05/30-20:09 2m CT1APE (JOSE)
2020/05/30-19:58 2m CT1AGS (VITOR)
2020/05/30-19:51 2m CT2JIF (PAULO)
  UTC
Rpi-6 CPU Temp: 454642.0 °C (251812Z)
IN51oq 0504Z /////KT //// 24/12 Q1014=
116765